Time;durP1;ratioP1;P1;durP2;ratioP2;P2;SDS_P1;SDS_P2;PMS_P1;PMS_P2;Temp;Humidity;BMP_temperature;BMP_pressure;BME280_temperature;BME280_humidity;BME280_pressure;Samples;Min_cycle;Max_cycle;Signal;HPM_P1;HPM_P2
2022/06/26 00:01:20;;;;;;;12.80;11.50;;;17.70;99.90;;;;;;5032848;28;20049;-66
2022/06/26 00:03:45;;;;;;;15.40;12.48;;;17.50;99.90;;;;;;5032659;28;20056;-66
2022/06/26 00:06:11;;;;;;;17.25;11.43;;;17.70;99.90;;;;;;5027771;28;20441;-65
2022/06/26 00:08:37;;;;;;;15.38;11.98;;;17.70;99.90;;;;;;5054872;28;20040;-66
2022/06/26 00:11:02;;;;;;;14.25;12.80;;;17.60;99.90;;;;;;5036823;28;20033;-65
2022/06/26 00:13:28;;;;;;;18.63;12.63;;;17.60;99.90;;;;;;5012701;28;20042;-66
2022/06/26 00:15:54;;;;;;;14.25;12.75;;;17.70;99.90;;;;;;5014070;28;20089;-65
2022/06/26 00:18:19;;;;;;;13.57;12.18;;;17.70;99.90;;;;;;5023113;28;20033;-65
2022/06/26 00:20:45;;;;;;;12.85;11.38;;;17.60;99.90;;;;;;5025082;28;20112;-66
2022/06/26 00:23:10;;;;;;;18.15;13.13;;;17.60;99.90;;;;;;5032797;28;20785;-65
2022/06/26 00:25:36;;;;;;;15.73;12.20;;;18.70;99.90;;;;;;4995677;28;20492;-65
2022/06/26 00:28:02;;;;;;;15.10;11.88;;;17.40;99.90;;;;;;5013483;28;20041;-66
2022/06/26 00:30:28;;;;;;;16.58;12.82;;;17.40;99.90;;;;;;4998042;28;20152;-65
2022/06/26 00:32:54;;;;;;;16.80;8.93;;;17.50;99.90;;;;;;5005356;28;20044;-65
2022/06/26 00:35:19;;;;;;;14.98;8.88;;;17.50;99.90;;;;;;5048408;28;20045;-66
2022/06/26 00:37:45;;;;;;;14.18;8.68;;;17.60;99.90;;;;;;5017799;28;20033;-65
2022/06/26 00:40:10;;;;;;;15.23;9.77;;;17.60;99.90;;;;;;5017670;28;20077;-67
2022/06/26 00:42:36;;;;;;;18.77;10.18;;;17.40;99.90;;;;;;5012411;28;20128;-66
2022/06/26 00:45:03;;;;;;;18.42;10.40;;;17.80;99.90;;;;;;4998983;28;20042;-66
2022/06/26 00:47:31;;;;;;;15.25;10.20;;;17.80;99.90;;;;;;5021784;28;20033;-66
2022/06/26 00:49:57;;;;;;;18.30;11.05;;;17.80;99.90;;;;;;5019646;28;20112;-66
2022/06/26 00:52:23;;;;;;;16.48;10.45;;;17.50;99.90;;;;;;5027054;28;20037;-67
2022/06/26 00:54:50;;;;;;;14.60;9.23;;;18.50;99.90;;;;;;5017017;28;20551;-66
2022/06/26 00:57:17;;;;;;;14.18;10.45;;;17.60;99.90;;;;;;5013624;28;20080;-65
2022/06/26 00:59:43;;;;;;;16.73;10.77;;;17.90;99.90;;;;;;5056793;28;20076;-66
2022/06/26 01:02:09;;;;;;;13.95;9.32;;;17.80;99.90;;;;;;4999595;28;20092;-66
2022/06/26 01:04:34;;;;;;;16.30;10.63;;;18.50;99.90;;;;;;5016882;28;20272;-65
2022/06/26 01:07:00;;;;;;;15.73;9.20;;;17.90;99.90;;;;;;4998252;28;20044;-65
2022/06/26 01:09:26;;;;;;;13.90;9.30;;;17.70;99.90;;;;;;4998010;28;20038;-65
2022/06/26 01:11:53;;;;;;;17.65;10.32;;;18.20;99.90;;;;;;5015729;28;20504;-65
2022/06/26 01:14:19;;;;;;;15.70;9.65;;;18.10;99.90;;;;;;5031719;28;20463;-65
2022/06/26 01:16:45;;;;;;;14.82;10.50;;;17.90;99.90;;;;;;5009681;28;20085;-66
2022/06/26 01:19:15;;;;;;;14.35;10.80;;;18.00;99.90;;;;;;5023770;28;20491;-66
2022/06/26 01:21:41;;;;;;;13.73;9.35;;;18.10;99.90;;;;;;5030919;28;20060;-65
2022/06/26 01:24:07;;;;;;;12.80;9.63;;;17.70;99.90;;;;;;4998389;28;20038;-65
2022/06/26 01:26:33;;;;;;;17.50;10.40;;;18.00;99.90;;;;;;5036276;28;20037;-65
2022/06/26 01:28:59;;;;;;;15.00;9.88;;;18.10;99.90;;;;;;5023704;28;20091;-65
2022/06/26 01:31:25;;;;;;;15.55;9.65;;;19.40;99.90;;;;;;5020330;28;20045;-65
2022/06/26 01:33:50;;;;;;;14.60;9.70;;;18.10;99.90;;;;;;4998070;28;20049;-65
2022/06/26 01:36:16;;;;;;;14.20;10.70;;;17.70;99.90;;;;;;5029025;28;20037;-65
2022/06/26 01:38:43;;;;;;;13.88;9.88;;;17.80;99.90;;;;;;5012840;28;20048;-66
2022/06/26 01:41:08;;;;;;;17.27;9.88;;;17.90;99.90;;;;;;5014948;28;20480;-65
2022/06/26 01:43:37;;;;;;;11.23;8.85;;;18.00;99.90;;;;;;5006513;28;20121;-65
2022/06/26 01:46:04;;;;;;;14.63;10.90;;;18.00;99.90;;;;;;4986847;28;20103;-65
2022/06/26 01:48:31;;;;;;;14.95;10.57;;;19.20;99.90;;;;;;5018412;28;20046;-65
2022/06/26 01:51:00;;;;;;;12.68;10.10;;;17.80;99.90;;;;;;5025554;28;20069;-65
2022/06/26 01:53:27;;;;;;;12.65;10.15;;;17.90;99.90;;;;;;5015964;28;20041;-66
2022/06/26 01:55:53;;;;;;;14.48;11.32;;;17.80;99.90;;;;;;5032430;28;20041;-65
2022/06/26 01:58:19;;;;;;;16.10;10.13;;;17.80;99.90;;;;;;5000066;28;20065;-66
2022/06/26 02:00:46;;;;;;;17.52;11.35;;;17.90;99.90;;;;;;5031275;28;20042;-66
2022/06/26 02:03:13;;;;;;;17.77;10.90;;;18.00;99.90;;;;;;5015527;28;20112;-65
2022/06/26 02:05:39;;;;;;;13.45;9.55;;;17.80;99.90;;;;;;5015896;28;20407;-66
2022/06/26 02:08:05;;;;;;;11.18;9.20;;;19.30;99.90;;;;;;5030131;28;20510;-66
2022/06/26 02:16:03;;;;;;;13.68;8.77;;;17.70;99.90;;;;;;5019084;28;20049;-66
2022/06/26 02:18:29;;;;;;;12.70;7.97;;;17.70;99.90;;;;;;5017807;28;20385;-66
2022/06/26 02:20:55;;;;;;;11.50;8.95;;;17.90;99.90;;;;;;5019089;28;20082;-65
2022/06/26 02:23:21;;;;;;;10.85;6.95;;;17.70;99.90;;;;;;5001784;28;20132;-66
2022/06/26 02:25:47;;;;;;;12.10;6.93;;;17.70;99.90;;;;;;4997181;28;20177;-65
2022/06/26 02:28:13;;;;;;;7.25;6.18;;;18.10;99.90;;;;;;5019455;28;20041;-65
2022/06/26 02:30:39;;;;;;;10.52;6.00;;;18.00;99.90;;;;;;5009126;28;20111;-65
2022/06/26 02:33:05;;;;;;;8.52;5.15;;;17.30;99.90;;;;;;5029933;28;20065;-65
2022/06/26 02:35:31;;;;;;;8.00;5.50;;;17.60;99.90;;;;;;4993198;28;20622;-65
2022/06/26 02:37:57;;;;;;;10.80;5.10;;;18.70;99.90;;;;;;4999827;28;20040;-66
2022/06/26 02:40:27;;;;;;;5.32;4.28;;;17.80;99.90;;;;;;5021914;28;20038;-65
2022/06/26 02:42:53;;;;;;;9.65;5.32;;;19.20;99.90;;;;;;5039612;28;20041;-65
2022/06/26 02:45:19;;;;;;;8.68;5.07;;;17.90;99.90;;;;;;5015268;28;20104;-65
2022/06/26 02:47:45;;;;;;;5.78;4.07;;;18.80;99.90;;;;;;4994701;28;20041;-65
2022/06/26 02:50:11;;;;;;;6.28;4.22;;;18.80;99.90;;;;;;4985570;28;20033;-65
2022/06/26 02:52:37;;;;;;;7.32;3.67;;;17.50;99.90;;;;;;5018963;28;20045;-65
2022/06/26 02:55:03;;;;;;;4.72;3.53;;;19.00;99.90;;;;;;5036656;28;20036;-65
2022/06/26 02:57:29;;;;;;;5.60;3.30;;;17.80;99.90;;;;;;5013082;28;20484;-65
2022/06/26 02:59:55;;;;;;;6.45;3.15;;;17.50;99.90;;;;;;5022898;28;20049;-65
2022/06/26 03:02:26;;;;;;;3.88;2.88;;;17.80;99.90;;;;;;4994932;28;20053;-66
2022/06/26 03:04:53;;;;;;;5.60;3.28;;;17.70;99.90;;;;;;5026792;28;20053;-65
2022/06/26 03:07:19;;;;;;;5.03;2.53;;;17.40;99.90;;;;;;5009892;28;20041;-65
2022/06/26 03:09:44;;;;;;;6.10;2.72;;;17.40;99.90;;;;;;5051814;28;20033;-64
2022/06/26 03:12:10;;;;;;;4.93;2.60;;;17.50;99.90;;;;;;5012374;28;20042;-65
2022/06/26 03:14:36;;;;;;;2.63;1.85;;;17.40;99.90;;;;;;4994865;28;20042;-65
2022/06/26 03:17:01;;;;;;;5.75;2.20;;;17.50;99.90;;;;;;5011102;28;20041;-65
2022/06/26 03:19:27;;;;;;;3.33;2.08;;;17.50;99.90;;;;;;4996062;28;20061;-66
2022/06/26 03:21:53;;;;;;;3.90;2.28;;;17.50;99.90;;;;;;4994817;28;20050;-65
2022/06/26 03:24:20;;;;;;;3.85;2.80;;;17.30;99.90;;;;;;5011130;28;20037;-65
2022/06/26 03:26:47;;;;;;;2.70;2.30;;;17.30;99.90;;;;;;5013113;28;20041;-65
2022/06/26 03:29:13;;;;;;;3.70;2.28;;;17.40;99.90;;;;;;5011012;28;20125;-65
2022/06/26 03:31:39;;;;;;;3.38;2.47;;;17.60;99.90;;;;;;4995384;28;20065;-65
2022/06/26 03:34:04;;;;;;;2.88;2.22;;;17.20;99.90;;;;;;5010862;28;20050;-65
2022/06/26 03:36:30;;;;;;;4.10;1.92;;;17.50;99.90;;;;;;5011109;28;20100;-65
2022/06/26 03:38:56;;;;;;;4.85;2.25;;;17.50;99.90;;;;;;5024543;28;20059;-66
2022/06/26 03:41:22;;;;;;;6.38;3.47;;;17.20;99.90;;;;;;5011363;28;20049;-65
2022/06/26 03:43:48;;;;;;;3.17;2.50;;;17.30;99.90;;;;;;5010822;28;20081;-65
2022/06/26 03:46:14;;;;;;;4.07;2.47;;;17.20;99.90;;;;;;5002132;28;20064;-65
2022/06/26 03:48:41;;;;;;;3.45;2.20;;;17.10;99.90;;;;;;4995326;28;20144;-65
2022/06/26 03:51:07;;;;;;;2.85;2.40;;;18.50;99.90;;;;;;5014387;28;20037;-65
2022/06/26 03:53:34;;;;;;;3.30;2.60;;;16.90;99.90;;;;;;5052578;28;20040;-65
2022/06/26 03:56:03;;;;;;;3.70;2.40;;;17.40;99.90;;;;;;4990737;28;20038;-65
2022/06/26 03:58:28;;;;;;;3.50;2.53;;;17.40;99.90;;;;;;5018624;28;20038;-65
2022/06/26 04:00:54;;;;;;;3.80;2.80;;;17.30;99.90;;;;;;5012705;28;20045;-65
2022/06/26 04:03:20;;;;;;;3.45;2.58;;;17.30;99.90;;;;;;5051670;28;20049;-66
2022/06/26 04:05:46;;;;;;;3.13;2.45;;;17.00;99.90;;;;;;5043958;28;20049;-65
2022/06/26 04:08:12;;;;;;;4.70;2.60;;;17.40;99.90;;;;;;5017775;28;20470;-66
2022/06/26 04:10:38;;;;;;;3.90;2.40;;;17.20;99.90;;;;;;5017744;28;20044;-65
2022/06/26 04:13:06;;;;;;;4.53;3.10;;;17.30;99.90;;;;;;5005638;28;20038;-65
2022/06/26 04:15:33;;;;;;;5.60;2.67;;;17.20;99.90;;;;;;5054369;28;20116;-66
2022/06/26 04:17:59;;;;;;;3.97;2.58;;;17.50;99.90;;;;;;5011147;28;20037;-65
2022/06/26 04:20:25;;;;;;;4.95;2.60;;;17.20;99.90;;;;;;5032630;28;20040;-65
2022/06/26 04:22:59;;;;;;;3.78;2.80;;;17.20;99.90;;;;;;5020664;28;20042;-65
2022/06/26 04:25:25;;;;;;;6.28;2.95;;;17.10;99.90;;;;;;4997939;28;20042;-65
2022/06/26 04:27:51;;;;;;;6.70;3.60;;;17.20;99.90;;;;;;5016413;28;20547;-65
2022/06/26 04:30:18;;;;;;;6.05;4.15;;;17.40;99.90;;;;;;5015611;28;20049;-65
2022/06/26 04:32:46;;;;;;;5.00;4.22;;;17.20;99.90;;;;;;5015200;28;20503;-65
2022/06/26 04:35:12;;;;;;;6.97;4.10;;;17.30;99.90;;;;;;5011791;28;20045;-63
2022/06/26 04:37:38;;;;;;;4.82;4.43;;;17.30;99.90;;;;;;5026083;28;20096;-65
2022/06/26 04:40:05;;;;;;;8.35;4.95;;;17.50;99.90;;;;;;5003969;28;20733;-65
2022/06/26 04:42:30;;;;;;;6.55;4.85;;;17.30;99.90;;;;;;5011959;28;20512;-64
2022/06/26 04:44:56;;;;;;;6.53;4.72;;;17.40;99.90;;;;;;5030709;28;20046;-65
2022/06/26 04:47:22;;;;;;;6.45;4.95;;;17.30;99.90;;;;;;5015642;28;20050;-65
2022/06/26 04:49:47;;;;;;;7.72;5.10;;;17.20;99.90;;;;;;5008691;28;20447;-65
2022/06/26 04:52:14;;;;;;;12.98;5.72;;;17.30;99.90;;;;;;5009955;28;20492;-64
2022/06/26 04:54:41;;;;;;;8.00;5.65;;;17.10;99.90;;;;;;5014869;28;20055;-65
2022/06/26 04:57:06;;;;;;;8.55;6.88;;;17.50;99.90;;;;;;4994608;28;20057;-65
2022/06/26 04:59:32;;;;;;;8.43;6.55;;;17.60;99.90;;;;;;5014819;28;20042;-66
2022/06/26 05:01:58;;;;;;;8.95;6.40;;;17.30;99.90;;;;;;5012181;28;20054;-65
2022/06/26 05:04:23;;;;;;;10.43;7.88;;;17.70;99.90;;;;;;4991774;28;20058;-66
2022/06/26 05:06:49;;;;;;;12.35;7.65;;;17.90;99.90;;;;;;4993773;28;20126;-65
2022/06/26 05:09:14;;;;;;;9.40;7.82;;;17.70;99.90;;;;;;5014196;28;20041;-65
2022/06/26 05:11:41;;;;;;;9.02;8.13;;;17.60;99.90;;;;;;4997833;28;20048;-65
2022/06/26 05:14:10;;;;;;;12.02;8.50;;;17.80;99.90;;;;;;5016114;28;20045;-65
2022/06/26 05:16:36;;;;;;;13.45;9.73;;;17.70;99.90;;;;;;4992740;28;20072;-65
2022/06/26 05:19:02;;;;;;;11.98;9.63;;;17.60;99.90;;;;;;4992076;28;20424;-63
2022/06/26 05:21:27;;;;;;;12.80;10.02;;;17.50;99.90;;;;;;5011915;28;20124;-65
2022/06/26 05:23:53;;;;;;;12.98;9.80;;;17.60;99.90;;;;;;5007501;28;20384;-66
2022/06/26 05:26:19;;;;;;;14.70;11.30;;;17.80;99.90;;;;;;5008029;28;20534;-65
2022/06/26 05:28:44;;;;;;;17.95;12.73;;;17.50;99.90;;;;;;5027619;28;20041;-65
2022/06/26 05:31:10;;;;;;;22.30;14.23;;;17.60;99.90;;;;;;5009527;28;20041;-66
2022/06/26 05:33:35;;;;;;;17.77;13.98;;;17.80;99.90;;;;;;5002341;28;20211;-66
2022/06/26 05:36:01;;;;;;;20.50;14.55;;;17.70;99.90;;;;;;5030891;28;20561;-66
2022/06/26 05:38:26;;;;;;;16.40;14.60;;;17.80;99.90;;;;;;5024879;28;20045;-66
2022/06/26 05:40:52;;;;;;;19.17;14.70;;;17.50;99.90;;;;;;5012745;28;20046;-66
2022/06/26 05:43:18;;;;;;;19.02;16.02;;;17.60;99.90;;;;;;5009361;28;20050;-66
2022/06/26 05:45:43;;;;;;;20.60;15.70;;;17.80;99.90;;;;;;5012968;28;20042;-65
2022/06/26 05:48:09;;;;;;;22.23;16.50;;;17.60;99.90;;;;;;5022372;28;20040;-66
2022/06/26 05:50:34;;;;;;;20.85;17.33;;;17.60;99.90;;;;;;5030604;28;20098;-66
2022/06/26 05:53:00;;;;;;;21.48;17.45;;;19.10;99.90;;;;;;5020874;28;20086;-66
2022/06/26 05:55:26;;;;;;;22.52;18.17;;;17.70;99.90;;;;;;5009519;28;20075;-65
2022/06/26 05:57:51;;;;;;;24.80;17.52;;;17.70;99.90;;;;;;5022208;28;20052;-65
2022/06/26 06:00:17;;;;;;;21.92;16.77;;;18.00;99.90;;;;;;5021090;28;20049;-65
2022/06/26 06:02:43;;;;;;;19.90;16.88;;;18.30;99.90;;;;;;5048204;28;20457;-65
2022/06/26 06:05:09;;;;;;;24.63;18.92;;;18.30;99.90;;;;;;5002594;28;20492;-66
2022/06/26 06:07:36;;;;;;;22.20;16.70;;;18.30;99.90;;;;;;5048315;28;20051;-65
2022/06/26 06:10:03;;;;;;;20.27;16.55;;;18.30;99.90;;;;;;5031240;28;20048;-65
2022/06/26 06:12:29;;;;;;;22.38;18.05;;;18.30;99.90;;;;;;5006800;28;20041;-65
2022/06/26 06:14:55;;;;;;;21.92;16.58;;;18.00;99.90;;;;;;5001926;28;20048;-65
2022/06/26 06:17:35;;;;;;;23.67;17.27;;;18.20;99.90;;;;;;4999621;28;20046;-65
2022/06/26 06:20:06;;;;;;;25.67;17.00;;;18.20;99.90;;;;;;5026880;28;20079;-65
2022/06/26 06:22:32;;;;;;;25.92;17.10;;;18.10;99.90;;;;;;5026272;28;20049;-65
2022/06/26 06:24:58;;;;;;;23.80;16.58;;;18.20;99.90;;;;;;5025642;28;20053;-65
2022/06/26 06:27:23;;;;;;;22.10;16.60;;;17.90;99.90;;;;;;5020538;28;20041;-65
2022/06/26 06:29:49;;;;;;;25.27;16.48;;;18.00;99.90;;;;;;4994320;28;20049;-65
2022/06/26 06:32:14;;;;;;;25.27;17.33;;;17.90;99.90;;;;;;4993238;28;20446;-65
2022/06/26 06:34:40;;;;;;;24.35;16.92;;;17.90;99.90;;;;;;5006833;28;20131;-64
2022/06/26 06:37:06;;;;;;;24.40;16.63;;;17.90;99.90;;;;;;5000423;28;20049;-64
2022/06/26 06:39:32;;;;;;;21.23;16.52;;;18.00;99.90;;;;;;5020282;28;20030;-64
2022/06/26 06:41:58;;;;;;;22.48;16.98;;;17.80;99.90;;;;;;5031101;28;20503;-65
2022/06/26 06:44:23;;;;;;;25.40;19.17;;;18.00;99.90;;;;;;4999055;28;20083;-64
2022/06/26 06:46:49;;;;;;;24.75;18.23;;;17.80;99.90;;;;;;5006817;28;20480;-64
2022/06/26 06:49:15;;;;;;;23.40;18.13;;;17.80;99.90;;;;;;5026173;28;20099;-64
2022/06/26 06:51:40;;;;;;;24.67;18.42;;;18.20;99.90;;;;;;5010561;28;20045;-64
2022/06/26 06:54:06;;;;;;;24.67;19.45;;;17.70;99.90;;;;;;4996616;28;20073;-64
2022/06/26 06:56:32;;;;;;;27.70;20.10;;;18.20;99.90;;;;;;5018954;28;20048;-64
2022/06/26 06:58:58;;;;;;;27.50;18.77;;;18.10;99.90;;;;;;5001413;28;20053;-64
2022/06/26 07:01:23;;;;;;;27.13;19.90;;;18.40;99.90;;;;;;5009093;28;20034;-65
2022/06/26 07:03:49;;;;;;;25.48;19.27;;;18.30;99.90;;;;;;5025475;28;20120;-64
2022/06/26 07:06:14;;;;;;;25.08;19.02;;;18.50;99.90;;;;;;5013784;28;20044;-65
2022/06/26 07:08:40;;;;;;;25.13;19.98;;;18.60;99.90;;;;;;5010398;28;20052;-65
2022/06/26 07:11:06;;;;;;;26.92;19.15;;;19.00;99.90;;;;;;5007387;28;20045;-64
2022/06/26 07:13:31;;;;;;;22.80;19.00;;;18.80;99.90;;;;;;5012326;28;21050;-64
2022/06/26 07:15:57;;;;;;;23.77;18.38;;;18.70;99.90;;;;;;4995943;28;20050;-64
2022/06/26 07:18:24;;;;;;;25.10;20.48;;;19.00;99.90;;;;;;5009228;28;20057;-64
2022/06/26 07:20:50;;;;;;;24.67;19.23;;;19.30;99.90;;;;;;5007060;28;20053;-64
2022/06/26 07:23:15;;;;;;;26.48;17.60;;;19.10;99.90;;;;;;5020432;28;20041;-65
2022/06/26 07:25:41;;;;;;;22.80;17.35;;;19.00;99.90;;;;;;5017115;28;20045;-65
2022/06/26 07:28:08;;;;;;;21.55;17.17;;;19.20;99.90;;;;;;5017035;28;20527;-65
2022/06/26 07:30:34;;;;;;;24.90;17.48;;;19.10;99.90;;;;;;5011035;28;20045;-65
2022/06/26 07:34:12;;;;;;;22.30;16.92;;;19.00;99.90;;;;;;4997114;28;20049;-65
2022/06/26 07:35:53;;;;;;;22.38;15.82;;;19.40;99.90;;;;;;4997236;28;20081;-66
2022/06/26 07:38:19;;;;;;;20.98;16.67;;;19.30;99.90;;;;;;5025069;28;20072;-65
2022/06/26 07:40:44;;;;;;;16.83;15.02;;;19.30;99.90;;;;;;5001452;28;20112;-66
2022/06/26 07:43:10;;;;;;;20.83;14.48;;;19.40;99.90;;;;;;4997515;28;20069;-65
2022/06/26 07:45:36;;;;;;;19.13;13.15;;;19.10;99.90;;;;;;5009575;28;20041;-66
2022/06/26 07:48:02;;;;;;;18.38;12.20;;;19.30;99.90;;;;;;5020440;28;20072;-65
2022/06/26 07:50:28;;;;;;;12.02;7.30;;;19.40;99.90;;;;;;5027828;28;20045;-65
2022/06/26 07:52:54;;;;;;;11.15;7.55;;;19.70;99.90;;;;;;5005541;28;20049;-65
2022/06/26 07:55:19;;;;;;;9.10;7.40;;;19.60;99.90;;;;;;5016017;28;20072;-65
2022/06/26 07:57:45;;;;;;;11.38;7.68;;;19.50;99.90;;;;;;5029074;28;20400;-65
2022/06/26 08:00:11;;;;;;;10.15;7.93;;;19.20;99.90;;;;;;5029830;28;20072;-64
2022/06/26 08:02:37;;;;;;;8.90;7.55;;;19.00;99.90;;;;;;5015542;28;20069;-65
2022/06/26 08:05:03;;;;;;;9.23;7.50;;;19.30;99.90;;;;;;5010530;28;20046;-66
2022/06/26 08:07:28;;;;;;;7.32;5.82;;;19.00;99.90;;;;;;5015699;28;20041;-67
2022/06/26 08:09:54;;;;;;;4.80;3.40;;;20.90;99.90;;;;;;4998065;28;20057;-67
2022/06/26 08:12:22;;;;;;;6.85;4.13;;;19.00;99.90;;;;;;5014830;28;20420;-65
2022/06/26 08:14:48;;;;;;;5.65;3.17;;;19.00;99.90;;;;;;5015199;28;20053;-65
2022/06/26 08:17:13;;;;;;;7.00;4.38;;;18.90;99.90;;;;;;5026187;28;20411;-65
2022/06/26 08:19:41;;;;;;;5.93;5.40;;;18.90;99.90;;;;;;5024843;28;20104;-65
2022/06/26 08:22:07;;;;;;;7.38;5.97;;;19.00;99.90;;;;;;5016821;28;20104;-65
2022/06/26 08:24:33;;;;;;;8.63;5.65;;;19.20;99.90;;;;;;5028208;28;20052;-65
2022/06/26 08:27:00;;;;;;;7.75;6.20;;;19.40;99.90;;;;;;5028029;28;20445;-65
2022/06/26 08:29:26;;;;;;;9.65;7.25;;;19.30;99.90;;;;;;5014869;28;20125;-65
2022/06/26 08:31:52;;;;;;;8.27;6.25;;;19.40;99.90;;;;;;5033425;28;20116;-67
2022/06/26 08:34:18;;;;;;;10.70;8.23;;;19.60;99.90;;;;;;5014353;28;20444;-67
2022/06/26 08:36:43;;;;;;;9.13;6.72;;;19.70;99.90;;;;;;5017458;28;20034;-66
2022/06/26 08:39:09;;;;;;;7.45;5.47;;;19.80;99.90;;;;;;5019001;28;20451;-66
2022/06/26 08:41:40;;;;;;;7.18;5.38;;;20.00;99.90;;;;;;5034813;28;20048;-66
2022/06/26 08:44:06;;;;;;;8.25;4.45;;;20.20;99.90;;;;;;5035445;28;20099;-66
2022/06/26 08:46:38;;;;;;;8.80;5.50;;;20.70;99.90;;;;;;5035299;28;20294;-66
2022/06/26 08:49:15;;;;;;;8.82;5.68;;;20.20;99.90;;;;;;5033748;28;20438;-66
2022/06/26 08:51:43;;;;;;;5.60;3.00;;;20.30;99.90;;;;;;5009199;28;20045;-66
2022/06/26 08:54:09;;;;;;;5.90;4.53;;;20.40;99.90;;;;;;5013935;28;20034;-66
2022/06/26 08:56:41;;;;;;;8.05;4.47;;;20.20;99.90;;;;;;5008670;28;20077;-66
2022/06/26 08:59:17;;;;;;;6.43;3.15;;;20.50;99.90;;;;;;5027405;28;20495;-66
2022/06/26 09:01:44;;;;;;;4.50;3.17;;;20.50;99.90;;;;;;5001046;28;20081;-66
2022/06/26 09:04:11;;;;;;;5.55;3.65;;;20.40;99.90;;;;;;4990673;28;20050;-66
2022/06/26 09:06:38;;;;;;;7.82;3.08;;;21.30;99.90;;;;;;4989284;28;20039;-66
2022/06/26 09:09:19;;;;;;;5.93;3.20;;;20.50;99.90;;;;;;4982859;28;20117;-66
2022/06/26 09:11:45;;;;;;;6.57;4.22;;;20.70;99.90;;;;;;4988545;28;20046;-66
2022/06/26 09:14:15;;;;;;;8.85;4.85;;;20.70;99.90;;;;;;4990237;28;20050;-66
2022/06/26 09:16:45;;;;;;;6.05;4.05;;;20.70;99.90;;;;;;4989526;28;20492;-66
2022/06/26 09:19:20;;;;;;;5.47;2.90;;;20.80;99.90;;;;;;4990022;28;20081;-67
2022/06/26 09:21:49;;;;;;;;;;;20.90;99.90;;;;;;4990932;28;20047;-64
2022/06/26 09:24:17;;;;;;;9.65;3.60;;;20.70;99.90;;;;;;4984632;28;20713;-66
2022/06/26 09:26:44;;;;;;;7.10;3.95;;;20.90;99.90;;;;;;4976354;28;20056;-65
2022/06/26 09:29:15;;;;;;;7.10;4.28;;;21.10;99.90;;;;;;4985963;28;20097;-65
2022/06/26 09:31:42;;;;;;;7.18;4.00;;;21.40;99.90;;;;;;4988068;28;20121;-66
2022/06/26 09:34:25;;;;;;;7.20;4.03;;;20.90;99.90;;;;;;4981287;28;20114;-67
2022/06/26 09:37:05;;;;;;;5.75;3.70;;;21.10;99.90;;;;;;4987082;28;20034;-66
2022/06/26 09:39:32;;;;;;;4.32;3.38;;;21.10;99.90;;;;;;4983150;28;20047;-65
2022/06/26 09:42:21;;;;;;;4.30;3.30;;;21.10;99.90;;;;;;4979453;28;20085;-66
2022/06/26 09:44:50;;;;;;;5.20;3.38;;;21.30;99.90;;;;;;4982262;28;20102;-65
2022/06/26 09:47:27;;;;;;;5.05;3.95;;;21.10;99.90;;;;;;4982963;28;20046;-66
2022/06/26 09:49:54;;;;;;;6.00;4.00;;;21.40;99.90;;;;;;4979167;28;20129;-66
2022/06/26 09:52:22;;;;;;;7.57;4.10;;;21.40;99.90;;;;;;4981471;28;20089;-66
2022/06/26 09:54:48;;;;;;;7.30;4.53;;;21.50;99.90;;;;;;4986360;28;20088;-66
2022/06/26 09:57:14;;;;;;;7.50;3.85;;;21.20;99.90;;;;;;4988896;28;20100;-66
2022/06/26 09:59:41;;;;;;;6.57;3.78;;;22.70;99.90;;;;;;4980082;28;20397;-66
2022/06/26 10:08:04;;;;;;;6.10;3.78;;;21.50;99.90;;;;;;5008363;28;20068;-65
2022/06/26 10:10:32;;;;;;;7.68;3.60;;;21.60;99.90;;;;;;5005613;28;20056;-66
2022/06/26 10:13:02;;;;;;;6.13;3.13;;;21.50;99.90;;;;;;5027437;28;20045;-66
2022/06/26 10:15:33;;;;;;;4.45;2.65;;;21.40;99.90;;;;;;5028300;28;20068;-66
2022/06/26 10:18:16;;;;;;;4.55;3.03;;;21.30;99.90;;;;;;5027508;28;20073;-66
2022/06/26 10:20:42;;;;;;;6.50;2.75;;;21.60;99.90;;;;;;5011861;28;20052;-66
2022/06/26 10:23:08;;;;;;;5.05;2.30;;;21.70;99.90;;;;;;5027253;28;20539;-66
2022/06/26 10:25:34;;;;;;;5.22;2.67;;;21.50;99.90;;;;;;5029565;28;20076;-66
2022/06/26 10:28:00;;;;;;;4.30;2.50;;;21.60;99.90;;;;;;5028396;28;20112;-66
2022/06/26 10:30:28;;;;;;;5.25;1.85;;;21.50;99.90;;;;;;5010544;28;20041;-66
2022/06/26 10:33:07;;;;;;;6.05;2.53;;;21.60;99.90;;;;;;5029291;28;20042;-66
2022/06/26 10:35:38;;;;;;;5.80;2.40;;;21.60;99.90;;;;;;5011634;28;20053;-66
2022/06/26 10:38:20;;;;;;;5.82;2.70;;;21.50;99.90;;;;;;5028490;28;20041;-66
2022/06/26 10:43:55;;;;;;;3.92;2.30;;;21.30;99.90;;;;;;4997840;28;20053;-66
2022/06/26 10:46:21;;;;;;;5.05;2.25;;;21.50;99.90;;;;;;5017464;28;20054;-65
2022/06/26 10:48:53;;;;;;;4.85;1.73;;;21.80;99.90;;;;;;5010042;28;20496;-66
2022/06/26 10:51:30;;;;;;;7.93;2.13;;;21.50;99.90;;;;;;5005221;28;20846;-65
2022/06/26 10:53:56;;;;;;;4.68;2.30;;;21.60;99.90;;;;;;5018157;28;20438;-65
2022/06/26 10:56:22;;;;;;;4.72;2.33;;;21.40;99.90;;;;;;5005998;28;20453;-65
2022/06/26 10:58:48;;;;;;;7.18;3.10;;;21.60;99.90;;;;;;5025014;28;20033;-65
2022/06/26 11:01:17;;;;;;;8.20;3.17;;;21.50;99.90;;;;;;4995557;28;20045;-65
2022/06/26 11:03:44;;;;;;;5.95;2.00;;;21.70;99.90;;;;;;5023218;28;20045;-65
2022/06/26 11:06:10;;;;;;;5.20;2.08;;;21.50;99.90;;;;;;5020354;28;20033;-66
2022/06/26 11:08:45;;;;;;;6.38;2.75;;;21.50;99.90;;;;;;5013474;28;20038;-65
2022/06/26 11:11:15;;;;;;;;;;;21.40;99.90;;;;;;5015596;28;20100;-65
2022/06/26 11:13:55;;;;;;;5.55;2.33;;;21.50;99.90;;;;;;5005328;28;20020;-65
2022/06/26 11:16:34;;;;;;;10.48;2.33;;;21.40;99.90;;;;;;5021762;28;20525;-66
2022/06/26 11:19:04;;;;;;;5.90;2.53;;;23.30;99.90;;;;;;5011300;28;20491;-65
2022/06/26 11:21:30;;;;;;;5.53;2.60;;;22.00;99.90;;;;;;5007120;28;20045;-65
2022/06/26 11:23:56;;;;;;;4.78;2.85;;;21.80;99.90;;;;;;4996730;28;20037;-65
2022/06/26 11:26:22;;;;;;;5.93;2.78;;;21.90;99.90;;;;;;5006389;28;20041;-65
2022/06/26 11:29:00;;;;;;;5.30;2.47;;;21.80;99.90;;;;;;5006755;28;20033;-65
2022/06/26 11:31:28;;;;;;;4.93;2.85;;;21.50;99.90;;;;;;4999232;28;20042;-65
2022/06/26 11:33:55;;;;;;;5.80;2.70;;;21.30;99.90;;;;;;4999112;28;20041;-65
2022/06/26 11:36:22;;;;;;;5.40;2.55;;;21.20;99.90;;;;;;5003289;28;20052;-65
2022/06/26 11:38:51;;;;;;;4.22;2.70;;;21.20;99.90;;;;;;5007932;28;20050;-65
2022/06/26 11:41:17;;;;;;;6.45;2.80;;;21.50;99.90;;;;;;5000582;28;20049;-65
2022/06/26 11:43:55;;;;;;;4.22;2.65;;;21.30;99.90;;;;;;5004422;28;20522;-66
2022/06/26 11:46:21;;;;;;;4.65;2.80;;;21.70;99.90;;;;;;4993153;28;20587;-66
2022/06/26 11:48:51;;;;;;;6.30;3.25;;;21.50;99.90;;;;;;5006660;28;20081;-65
2022/06/26 11:51:18;;;;;;;7.80;3.47;;;21.50;99.90;;;;;;4988280;28;20455;-65
2022/06/26 11:53:46;;;;;;;7.55;2.90;;;21.50;99.90;;;;;;4988529;28;20052;-65
2022/06/26 11:56:23;;;;;;;6.38;2.70;;;21.40;99.90;;;;;;5007269;28;20052;-65
2022/06/26 11:58:51;;;;;;;6.10;2.75;;;21.40;99.90;;;;;;5007258;28;20038;-66
2022/06/26 12:01:18;;;;;;;6.15;2.75;;;21.30;99.90;;;;;;5025136;28;20041;-66
2022/06/26 12:03:43;;;;;;;7.20;3.13;;;21.40;99.90;;;;;;4992387;28;20050;-65
2022/06/26 12:06:10;;;;;;;5.60;2.80;;;21.00;99.90;;;;;;5001888;28;20400;-65
2022/06/26 12:08:35;;;;;;;6.88;2.65;;;21.20;99.90;;;;;;5020298;28;20041;-65
2022/06/26 12:11:01;;;;;;;6.25;3.25;;;21.20;99.90;;;;;;5008122;28;20045;-66
2022/06/26 12:13:30;;;;;;;5.15;3.00;;;21.30;99.90;;;;;;4990372;28;20116;-65
2022/06/26 12:16:09;;;;;;;4.40;2.47;;;21.40;99.90;;;;;;5021655;28;20080;-65
2022/06/26 12:18:39;;;;;;;5.18;2.33;;;21.30;99.90;;;;;;5013731;28;20048;-65
2022/06/26 12:21:16;;;;;;;3.17;1.85;;;21.60;99.90;;;;;;5014426;28;20128;-65
2022/06/26 12:23:45;;;;;;;5.88;2.85;;;21.10;99.90;;;;;;5009987;28;20041;-66
2022/06/26 12:26:22;;;;;;;7.50;3.03;;;21.50;99.90;;;;;;5031834;28;20128;-65
2022/06/26 12:28:50;;;;;;;5.65;2.53;;;21.40;99.90;;;;;;5031271;28;20079;-65
2022/06/26 12:31:19;;;;;;;8.60;2.80;;;21.40;99.90;;;;;;5031794;28;20033;-65
2022/06/26 12:33:46;;;;;;;6.30;2.53;;;21.20;99.90;;;;;;5029538;28;20042;-65
2022/06/26 12:36:12;;;;;;;5.53;2.10;;;20.90;99.90;;;;;;5024103;28;20085;-65
2022/06/26 12:38:39;;;;;;;4.15;1.88;;;21.50;99.90;;;;;;5013736;28;20050;-65
2022/06/26 12:41:06;;;;;;;4.72;1.73;;;21.50;99.90;;;;;;4997832;28;20041;-66
2022/06/26 12:43:32;;;;;;;6.10;2.40;;;21.40;99.90;;;;;;5023112;28;20042;-65
2022/06/26 12:45:57;;;;;;;9.25;2.20;;;21.40;99.90;;;;;;5036366;28;20566;-65
2022/06/26 12:48:23;;;;;;;4.38;2.05;;;21.30;99.90;;;;;;5038495;28;20095;-65
2022/06/26 12:50:49;;;;;;;5.00;1.88;;;21.30;99.90;;;;;;5024417;28;20070;-65
2022/06/26 12:53:14;;;;;;;2.75;2.17;;;21.10;99.90;;;;;;5021741;28;20049;-65
2022/06/26 12:55:40;;;;;;;6.15;2.50;;;21.20;99.90;;;;;;5012540;28;20088;-65